Epic Balta — 9VED8 — position and weather

sailwx.info

Track history (hours):
 
Tides and Currents Weather Stations Pressure Air Temp Water Temp Dewpoint Dewpoint Depression Visibility Wind Speed Wind Dir Waves Ship Positions

Epic Balta

Last reported at 2015-Jul-17 13:28 UTC. Time now 2015-Jul-28 17:46 UTC.
Position N 29°30' W 094°52'.
Warning: this ship's position is 11 days out of date.

Length 100 m; draft 6.2 m.

Type: Ship. MMSI: 565525000.

Date/timePositionNaut miles runAvg speedWind from/ knotsBaromVisibWave heightAir tempDewpointWater temp
2015-Jul-17 13:28N 29°30' W 094°52'1011.4
2015-Jul-17 12:33N 29°39' W 094°58'9 8.9
2015-Jul-17 11:33N 29°46' W 095°04'7 5.6
2015-Jul-17 10:20N 29°44' W 095°12'0 0.0
2015-Jul-17 09:32N 29°44' W 095°12'0 0.0
2015-Jul-17 08:14N 29°44' W 095°12'  
2015-Jul-14 16:23N 29°44' W 095°12'3 3.4
2015-Jul-14 15:32N 29°44' W 095°09'6 5.7
2015-Jul-14 14:34N 29°44' W 095°03'10 9.6
2015-Jul-14 13:34N 29°36' W 094°57'1211.8
2015-Jul-14 12:34N 29°26' W 094°50'  
Track history (hours):
 
Tides and Currents Weather Stations Pressure Air Temp Water Temp Dewpoint Dewpoint Depression Visibility Wind Speed Wind Dir Waves Ship Positions

Epic Balta

Last reported at 2015-Jul-17 13:28 UTC. Time now 2015-Jul-28 17:46 UTC.
Position N 29°30' W 094°52'.
Warning: this ship's position is 11 days out of date.

Length 100 m; draft 6.2 m.

Type: Ship. MMSI: 565525000.

Date/timePositionNaut miles runAvg speedWind from/ knotsBaromVisibWave heightAir tempDewpointWater temp
2015-Jul-17 13:28N 29°30' W 094°52'1011.4
2015-Jul-17 12:33N 29°39' W 094°58'9 8.9
2015-Jul-17 11:33N 29°46' W 095°04'7 5.6
2015-Jul-17 10:20N 29°44' W 095°12'0 0.0
2015-Jul-17 09:32N 29°44' W 095°12'0 0.0
2015-Jul-17 08:14N 29°44' W 095°12'  
2015-Jul-14 16:23N 29°44' W 095°12'3 3.4
2015-Jul-14 15:32N 29°44' W 095°09'6 5.7
2015-Jul-14 14:34N 29°44' W 095°03'10 9.6
2015-Jul-14 13:34N 29°36' W 094°57'1211.8
2015-Jul-14 12:34N 29°26' W 094°50'  

Dump ship's entire track history